This is the latest recevied weather packets stored in our database for station/object DK6GC-10. If no packets are shown the sender has not sent any weather packets the latest 10 day(s).
| Time | Temp. | Humidity | Pressure | Rain* | Wind** | Luminosity | Snow |
|---|---|---|---|---|---|---|---|
| 1777299317 | 22.22° C | 32% | 1019.8 hPa | - | - | - | - |
| 1777298417 | 21.67° C | 32% | 1019.9 hPa | - | - | - | - |
| 1777297517 | 21.67° C | 33% | 1020.1 hPa | - | - | - | - |
| 1777296616 | 21.67° C | 35% | 1020.2 hPa | - | - | - | - |
| 1777295715 | 22.22° C | 34% | 1020.4 hPa | - | - | - | - |
| 1777294815 | 21.11° C | 37% | 1020.6 hPa | - | - | - | - |
| 1777293915 | 21.11° C | 36% | 1020.7 hPa | - | - | - | - |
| 1777293015 | 21.11° C | 38% | 1020.8 hPa | - | - | - | - |
| 1777292115 | 21.11° C | 39% | 1020.9 hPa | - | - | - | - |
| 1777291220 | 21.67° C | 37% | 1020.8 hPa | - | - | - | - |
| 1777290320 | 20.56° C | 38% | 1021 hPa | - | - | - | - |
| 1777289420 | 20.56° C | 39% | 1021.1 hPa | - | - | - | - |
| 1777288519 | 20.56° C | 37% | 1021.1 hPa | - | - | - | - |
| 1777287619 | 20.56° C | 38% | 1021.2 hPa | - | - | - | - |
| 1777286719 | 20° C | 39% | 1021.2 hPa | - | - | - | - |
| 1777285819 | 19.44° C | 40% | 1021.7 hPa | - | - | - | - |
| 1777284919 | 19.44° C | 40% | 1021.8 hPa | - | - | - | - |
| 1777284019 | 18.33° C | 43% | 1021.9 hPa | - | - | - | - |
| 1777283119 | 18.33° C | 47% | 1022.1 hPa | - | - | - | - |
| 1777282218 | 17.22° C | 46% | 1022.2 hPa | - | - | - | - |
| 1777281318 | 16.11° C | 51% | 1022.4 hPa | - | - | - | - |
| 1777280418 | 16.11° C | 53% | 1022.6 hPa | - | - | - | - |
| 1777279518 | 15.56° C | 51% | 1022.7 hPa | - | - | - | - |
| 1777278618 | 15° C | 53% | 1022.8 hPa | - | - | - | - |
| 1777277717 | 13.33° C | 58% | 1022.7 hPa | - | - | - | - |
* Rain since midnight (hover to see other rain measurements)
** Current wind speed in m/s (hover to see current wind gust speed)